createdAt,value
2018-08-04T00:00:23.935Z,934.77
2018-08-04T00:01:23.946Z,934.77
2018-08-04T00:02:23.963Z,934.73
2018-08-04T00:03:24.113Z,934.78
2018-08-04T00:04:23.981Z,934.77
2018-08-04T00:05:23.992Z,934.80
2018-08-04T00:06:23.999Z,934.75
2018-08-04T00:07:24.015Z,934.78
2018-08-04T00:08:24.170Z,934.74
2018-08-04T00:09:24.032Z,934.78
2018-08-04T00:10:24.043Z,934.72
2018-08-04T00:11:24.056Z,934.71
2018-08-04T00:12:24.070Z,934.72
2018-08-04T00:13:24.207Z,934.77
2018-08-04T00:14:24.090Z,934.74
2018-08-04T00:15:24.106Z,934.74
2018-08-04T00:16:24.108Z,934.74
2018-08-04T00:17:24.124Z,934.73
2018-08-04T00:18:24.269Z,934.74
2018-08-04T00:19:24.142Z,934.77
2018-08-04T00:20:24.154Z,934.75
2018-08-04T00:21:24.166Z,934.75
2018-08-04T00:22:24.160Z,934.76
2018-08-04T00:23:24.189Z,934.75
2018-08-04T00:24:24.204Z,934.78
2018-08-04T00:25:24.213Z,934.77
2018-08-04T00:26:24.240Z,934.75
2018-08-04T00:27:24.237Z,934.75
2018-08-04T00:28:24.246Z,934.70
2018-08-04T00:29:24.359Z,934.72
2018-08-04T00:30:24.265Z,934.66
2018-08-04T00:31:24.284Z,934.60
2018-08-04T00:32:24.293Z,934.57
2018-08-04T00:33:24.310Z,934.55
2018-08-04T00:34:24.400Z,934.58
2018-08-04T00:35:24.331Z,934.59
2018-08-04T00:36:24.315Z,934.61
2018-08-04T00:37:24.347Z,934.65
2018-08-04T00:38:24.359Z,934.68
2018-08-04T00:39:24.457Z,934.73
2018-08-04T00:40:24.382Z,934.73
2018-08-04T00:41:24.397Z,934.80
2018-08-04T00:42:24.400Z,934.79
2018-08-04T00:43:24.418Z,934.76
2018-08-04T00:44:24.538Z,934.70
2018-08-04T00:45:24.441Z,934.70
2018-08-04T00:46:24.448Z,934.68
2018-08-04T00:47:24.457Z,934.73
2018-08-04T00:48:24.467Z,934.75
2018-08-04T00:49:24.619Z,934.72
2018-08-04T00:50:24.497Z,934.76
2018-08-04T00:51:24.504Z,934.76
2018-08-04T00:52:24.512Z,934.76
2018-08-04T00:53:24.508Z,934.82
2018-08-04T00:54:24.789Z,934.82
2018-08-04T00:55:24.547Z,934.83
2018-08-04T00:56:24.563Z,934.85
2018-08-04T00:57:24.580Z,934.86
2018-08-04T00:58:24.589Z,934.86
2018-08-04T00:59:24.745Z,934.89
2018-08-04T01:00:24.617Z,934.94
2018-08-04T01:01:24.624Z,934.98
2018-08-04T01:02:24.634Z,934.98
2018-08-04T01:03:24.639Z,935.00
2018-08-04T01:04:24.807Z,935.01
2018-08-04T01:05:24.669Z,935.03
2018-08-04T01:06:24.660Z,935.00
2018-08-04T01:07:24.670Z,934.99
2018-08-04T01:08:24.706Z,935.03
2018-08-04T01:09:24.937Z,935.03
2018-08-04T01:10:24.708Z,935.02
2018-08-04T01:11:24.732Z,935.05
2018-08-04T01:12:24.743Z,935.08
2018-08-04T01:13:24.756Z,935.12
2018-08-04T01:14:24.898Z,935.11
2018-08-04T01:15:24.788Z,935.13
2018-08-04T01:16:24.788Z,935.12
2018-08-04T01:17:24.802Z,935.12
2018-08-04T01:18:24.814Z,935.09
2018-08-04T01:19:25.076Z,935.09
2018-08-04T01:20:24.843Z,935.04
2018-08-04T01:21:24.847Z,935.03
2018-08-04T01:22:24.863Z,934.98
2018-08-04T01:23:24.873Z,935.00
2018-08-04T01:24:25.035Z,935.02
2018-08-04T01:25:24.888Z,935.01
2018-08-04T01:26:24.943Z,935.01
2018-08-04T01:27:24.920Z,935.02
2018-08-04T01:28:24.935Z,935.00
2018-08-04T01:29:25.193Z,934.95
2018-08-04T01:30:24.956Z,934.94
2018-08-04T01:31:24.969Z,934.91
2018-08-04T01:32:24.980Z,934.93
2018-08-04T01:33:24.969Z,934.92
2018-08-04T01:34:25.136Z,934.94
2018-08-04T01:35:25.016Z,934.98
2018-08-04T01:36:25.016Z,934.95
2018-08-04T01:37:25.018Z,934.95
2018-08-04T01:38:25.045Z,934.88
2018-08-04T01:39:25.058Z,934.89
2018-08-04T01:40:25.066Z,934.83
2018-08-04T01:41:25.081Z,934.79
2018-08-04T01:42:25.074Z,934.81
2018-08-04T01:43:25.097Z,934.76
2018-08-04T01:44:25.279Z,934.72
2018-08-04T01:45:25.128Z,934.63
2018-08-04T01:46:25.140Z,934.61
2018-08-04T01:47:25.145Z,934.55
2018-08-04T01:48:25.152Z,934.55
2018-08-04T01:49:25.157Z,934.49
2018-08-04T01:50:25.327Z,934.45
2018-08-04T01:51:25.194Z,934.45
2018-08-04T01:52:25.207Z,934.43
2018-08-04T01:53:25.220Z,934.42
2018-08-04T01:54:25.226Z,934.40
2018-08-04T01:55:25.390Z,934.36
2018-08-04T01:56:25.236Z,934.32
2018-08-04T01:57:25.264Z,934.32
2018-08-04T01:58:25.272Z,934.32
2018-08-04T01:59:25.284Z,934.39
2018-08-04T02:00:25.435Z,934.46
2018-08-04T02:01:25.315Z,934.46
2018-08-04T02:02:25.316Z,934.49
2018-08-04T02:03:25.329Z,934.45
2018-08-04T02:04:25.341Z,934.40
2018-08-04T02:05:25.491Z,934.39
2018-08-04T02:06:25.360Z,934.37
2018-08-04T02:07:25.371Z,934.38
2018-08-04T02:08:25.390Z,934.40
2018-08-04T02:09:25.408Z,934.39
2018-08-04T02:10:25.564Z,934.34
2018-08-04T02:11:25.425Z,934.29
2018-08-04T02:12:25.430Z,934.21
2018-08-04T02:13:25.445Z,934.09
2018-08-04T02:14:25.463Z,934.05
2018-08-04T02:15:25.612Z,933.98
2018-08-04T02:16:25.494Z,933.97
2018-08-04T02:17:25.469Z,933.98
2018-08-04T02:18:25.501Z,933.98
2018-08-04T02:19:25.533Z,933.95
2018-08-04T02:20:25.782Z,933.93
2018-08-04T02:21:25.537Z,934.00
2018-08-04T02:22:25.552Z,933.99
2018-08-04T02:23:25.558Z,934.02
2018-08-04T02:24:25.575Z,934.00
2018-08-04T02:25:25.834Z,933.94
2018-08-04T02:26:25.581Z,933.88
2018-08-04T02:27:25.601Z,933.84
2018-08-04T02:28:25.615Z,933.81
2018-08-04T02:29:25.609Z,933.85
2018-08-04T02:30:25.794Z,933.90
2018-08-04T02:31:25.653Z,933.96
2018-08-04T02:32:25.659Z,934.03
2018-08-04T02:33:25.674Z,934.06
2018-08-04T02:34:25.684Z,934.07
2018-08-04T02:35:25.849Z,934.04
2018-08-04T02:36:25.712Z,934.02
2018-08-04T02:37:25.719Z,933.98
2018-08-04T02:38:25.730Z,933.94
2018-08-04T02:39:25.755Z,933.93
2018-08-04T02:40:26.007Z,933.91
2018-08-04T02:41:25.767Z,933.95
2018-08-04T02:42:25.770Z,933.97
2018-08-04T02:43:25.787Z,934.14
2018-08-04T02:44:25.804Z,934.26
2018-08-04T02:45:25.937Z,934.33
2018-08-04T02:46:25.813Z,934.39
2018-08-04T02:47:25.832Z,934.44
2018-08-04T02:48:25.829Z,934.44
2018-08-04T02:49:25.859Z,934.46
2018-08-04T02:50:26.025Z,934.43
2018-08-04T02:51:25.864Z,934.41
2018-08-04T02:52:25.893Z,934.38
2018-08-04T02:53:25.901Z,934.34
2018-08-04T02:54:25.912Z,934.34
2018-08-04T02:55:26.075Z,934.40
2018-08-04T02:56:25.941Z,934.35
2018-08-04T02:57:25.950Z,934.45
2018-08-04T02:58:25.943Z,934.51
2018-08-04T02:59:25.971Z,934.61
2018-08-04T03:00:26.136Z,934.70
2018-08-04T03:01:25.993Z,934.77
2018-08-04T03:02:26.002Z,934.86
2018-08-04T03:03:26.016Z,934.92
2018-08-04T03:04:26.023Z,935.00
2018-08-04T03:05:26.186Z,934.96
2018-08-04T03:06:26.047Z,934.99
2018-08-04T03:07:26.067Z,935.03
2018-08-04T03:08:26.126Z,935.05
2018-08-04T03:09:26.082Z,935.11
2018-08-04T03:10:26.252Z,935.10
2018-08-04T03:11:26.085Z,935.15
2018-08-04T03:12:26.118Z,935.14
2018-08-04T03:13:26.132Z,935.10
2018-08-04T03:14:26.147Z,935.16
2018-08-04T03:15:26.151Z,935.11
2018-08-04T03:16:26.420Z,935.10
2018-08-04T03:17:26.179Z,935.13
2018-08-04T03:18:26.188Z,935.18
2018-08-04T03:19:26.202Z,935.21
2018-08-04T03:20:26.199Z,935.23
2018-08-04T03:21:26.380Z,935.26
2018-08-04T03:22:26.241Z,935.34
2018-08-04T03:23:26.242Z,935.32
2018-08-04T03:24:26.255Z,935.36
2018-08-04T03:25:26.276Z,935.37
2018-08-04T03:26:26.430Z,935.36
2018-08-04T03:27:26.273Z,935.32
2018-08-04T03:28:26.305Z,935.30
2018-08-04T03:29:26.314Z,935.29
2018-08-04T03:30:26.309Z,935.23
2018-08-04T03:31:26.489Z,935.23
2018-08-04T03:32:26.344Z,935.18
2018-08-04T03:33:26.360Z,935.19
2018-08-04T03:34:26.370Z,935.23
2018-08-04T03:35:26.384Z,935.12
2018-08-04T03:36:26.531Z,935.14
2018-08-04T03:37:26.406Z,935.09
2018-08-04T03:38:26.420Z,935.01
2018-08-04T03:39:26.409Z,934.98
2018-08-04T03:40:26.437Z,934.95
2018-08-04T03:41:26.598Z,934.85
2018-08-04T03:42:26.464Z,934.76
2018-08-04T03:43:26.474Z,934.68
2018-08-04T03:44:26.492Z,934.61
2018-08-04T03:45:26.501Z,934.55
2018-08-04T03:46:26.664Z,934.48
2018-08-04T03:47:26.526Z,934.43
2018-08-04T03:48:26.535Z,934.43
2018-08-04T03:49:26.548Z,934.43
2018-08-04T03:50:26.558Z,934.46
2018-08-04T03:51:26.697Z,934.52
2018-08-04T03:52:26.585Z,934.57
2018-08-04T03:53:26.585Z,934.59
2018-08-04T03:54:26.578Z,934.60
2018-08-04T03:55:26.594Z,934.58
2018-08-04T03:56:26.869Z,934.57
2018-08-04T03:57:26.639Z,934.53
2018-08-04T03:58:26.628Z,934.54
2018-08-04T03:59:26.656Z,934.52
2018-08-04T04:00:26.671Z,934.48
2018-08-04T04:01:26.833Z,934.49
2018-08-04T04:02:26.701Z,934.52
2018-08-04T04:03:26.703Z,934.60
2018-08-04T04:04:26.712Z,934.65
2018-08-04T04:05:26.732Z,934.65
2018-08-04T04:06:26.989Z,934.69
2018-08-04T04:07:26.753Z,934.70
2018-08-04T04:08:26.760Z,934.73
2018-08-04T04:09:26.772Z,934.67
2018-08-04T04:10:26.785Z,934.65
2018-08-04T04:11:27.050Z,934.66
2018-08-04T04:12:26.812Z,934.60
2018-08-04T04:13:26.819Z,934.63
2018-08-04T04:14:26.839Z,934.61
2018-08-04T04:15:26.842Z,934.61
2018-08-04T04:16:27.008Z,934.61
2018-08-04T04:17:26.869Z,934.66
2018-08-04T04:18:26.882Z,934.68
2018-08-04T04:19:26.879Z,934.67
2018-08-04T04:20:26.903Z,934.68
2018-08-04T04:21:27.052Z,934.69
2018-08-04T04:22:26.923Z,934.70
2018-08-04T04:23:26.934Z,934.68
2018-08-04T04:24:26.945Z,934.64
2018-08-04T04:25:26.961Z,934.65
2018-08-04T04:26:27.217Z,934.62
2018-08-04T04:27:26.979Z,934.62
2018-08-04T04:28:26.996Z,934.65
2018-08-04T04:29:27.006Z,934.65
2018-08-04T04:30:27.020Z,934.68
2018-08-04T04:31:27.031Z,934.71
2018-08-04T04:32:27.171Z,934.74
2018-08-04T04:33:27.054Z,934.76
2018-08-04T04:34:27.068Z,934.78
2018-08-04T04:35:27.076Z,934.77
2018-08-04T04:36:27.067Z,934.80
2018-08-04T04:37:27.093Z,934.78
2018-08-04T04:38:27.357Z,934.74
2018-08-04T04:39:27.119Z,934.69
2018-08-04T04:40:27.128Z,934.60
2018-08-04T04:41:27.145Z,934.55
2018-08-04T04:42:27.153Z,934.52
2018-08-04T04:43:27.149Z,934.55
2018-08-04T04:44:27.324Z,934.52
2018-08-04T04:45:27.190Z,934.53
2018-08-04T04:46:27.202Z,934.56
2018-08-04T04:47:27.212Z,934.51
2018-08-04T04:48:27.258Z,934.51
2018-08-04T04:49:27.385Z,934.44
2018-08-04T04:50:27.256Z,934.44
2018-08-04T04:51:27.257Z,934.40
2018-08-04T04:52:27.266Z,934.36
2018-08-04T04:53:27.278Z,934.39
2018-08-04T04:54:27.445Z,934.35
2018-08-04T04:55:27.373Z,934.33
2018-08-04T04:56:27.319Z,934.31
2018-08-04T04:57:27.333Z,934.29
2018-08-04T04:58:27.335Z,934.30
2018-08-04T04:59:27.500Z,934.36
2018-08-04T05:00:27.367Z,934.36
2018-08-04T05:01:27.374Z,934.32
2018-08-04T05:02:27.381Z,934.29
2018-08-04T05:03:27.381Z,934.29
2018-08-04T05:04:27.561Z,934.27
2018-08-04T05:05:27.425Z,934.22
2018-08-04T05:06:27.429Z,934.21
2018-08-04T05:07:27.438Z,934.15
2018-08-04T05:08:27.457Z,934.19
2018-08-04T05:09:27.612Z,934.19
2018-08-04T05:10:27.474Z,934.20
2018-08-04T05:11:27.486Z,934.21
2018-08-04T05:12:27.481Z,934.17
2018-08-04T05:13:27.512Z,934.08
2018-08-04T05:14:27.681Z,934.09
2018-08-04T05:15:27.531Z,934.01
2018-08-04T05:16:27.544Z,934.03
2018-08-04T05:17:27.558Z,933.98
2018-08-04T05:18:27.575Z,933.97
2018-08-04T05:19:27.733Z,933.97
2018-08-04T05:20:27.573Z,933.95
2018-08-04T05:21:27.669Z,933.87
2018-08-04T05:22:27.615Z,933.80
2018-08-04T05:23:27.630Z,933.73
2018-08-04T05:24:27.787Z,933.67
2018-08-04T05:25:27.634Z,933.58
2018-08-04T05:26:27.664Z,933.49
2018-08-04T05:27:27.673Z,933.38
2018-08-04T05:28:27.680Z,933.36
2018-08-04T05:29:27.846Z,933.32
2018-08-04T05:30:27.710Z,933.32
2018-08-04T05:31:27.715Z,933.30
2018-08-04T05:32:27.736Z,933.28
2018-08-04T05:33:27.738Z,933.32
2018-08-04T05:34:27.904Z,933.36
2018-08-04T05:35:27.767Z,933.35
2018-08-04T05:36:27.771Z,933.28
2018-08-04T05:37:27.852Z,933.23
2018-08-04T05:38:27.782Z,933.16
2018-08-04T05:39:27.964Z,933.14
2018-08-04T05:40:27.804Z,933.17
2018-08-04T05:41:27.830Z,933.21
2018-08-04T05:42:27.849Z,933.20
2018-08-04T05:43:27.858Z,933.33
2018-08-04T05:44:28.121Z,933.44
2018-08-04T05:45:27.880Z,933.53
2018-08-04T05:46:27.893Z,933.60
2018-08-04T05:47:27.909Z,933.64
2018-08-04T05:48:27.925Z,933.68
2018-08-04T05:49:28.179Z,933.72
2018-08-04T05:50:27.940Z,933.80
2018-08-04T05:51:27.931Z,933.88
2018-08-04T05:52:27.941Z,933.96
2018-08-04T05:53:27.975Z,934.02
2018-08-04T05:54:27.985Z,934.07
2018-08-04T05:55:28.124Z,934.09
2018-08-04T05:56:28.002Z,934.08
2018-08-04T05:57:28.018Z,934.09
2018-08-04T05:58:28.015Z,934.08
2018-08-04T05:59:28.040Z,934.11
2018-08-04T06:00:28.198Z,934.15
2018-08-04T06:01:28.066Z,934.25
2018-08-04T06:02:28.082Z,934.20
2018-08-04T06:03:28.095Z,934.18
2018-08-04T06:04:28.095Z,934.11
2018-08-04T06:05:28.105Z,934.13
2018-08-04T06:06:28.289Z,934.07
2018-08-04T06:07:28.138Z,934.11
2018-08-04T06:08:28.143Z,934.12
2018-08-04T06:09:28.156Z,934.16
2018-08-04T06:10:28.167Z,934.15
2018-08-04T06:11:28.428Z,934.11
2018-08-04T06:12:28.196Z,934.18
2018-08-04T06:13:28.196Z,934.18
2018-08-04T06:14:28.217Z,934.16
2018-08-04T06:15:28.221Z,934.10
2018-08-04T06:16:28.390Z,934.11
2018-08-04T06:17:28.252Z,934.05
2018-08-04T06:18:28.243Z,934.05
2018-08-04T06:19:28.273Z,934.07
2018-08-04T06:20:28.264Z,934.03
2018-08-04T06:21:28.546Z,934.06
2018-08-04T06:22:28.305Z,934.06
2018-08-04T06:23:28.318Z,934.07
2018-08-04T06:24:28.324Z,934.09
2018-08-04T06:25:28.345Z,934.04
2018-08-04T06:26:28.601Z,934.02
2018-08-04T06:27:28.362Z,934.05
2018-08-04T06:28:28.379Z,934.07
2018-08-04T06:29:28.388Z,934.08
2018-08-04T06:30:28.407Z,934.11
2018-08-04T06:31:28.559Z,934.17
2018-08-04T06:32:28.398Z,934.17
2018-08-04T06:33:28.455Z,934.20
2018-08-04T06:34:28.440Z,934.18
2018-08-04T06:35:28.441Z,934.21
2018-08-04T06:36:28.618Z,934.17
2018-08-04T06:37:28.479Z,934.15
2018-08-04T06:38:28.487Z,934.21
2018-08-04T06:39:28.503Z,934.26
2018-08-04T06:40:28.517Z,934.31
2018-08-04T06:41:28.681Z,934.32
2018-08-04T06:42:28.543Z,934.36
2018-08-04T06:43:28.538Z,934.38
2018-08-04T06:44:28.559Z,934.44
2018-08-04T06:45:28.580Z,934.38
2018-08-04T06:46:28.840Z,934.36
2018-08-04T06:47:28.602Z,934.37
2018-08-04T06:48:28.612Z,934.36
2018-08-04T06:49:28.618Z,934.36
2018-08-04T06:50:28.634Z,934.32
2018-08-04T06:51:28.798Z,934.35
2018-08-04T06:52:28.653Z,934.32
2018-08-04T06:53:28.671Z,934.34
2018-08-04T06:54:28.680Z,934.33
2018-08-04T06:55:28.692Z,934.37
2018-08-04T06:56:28.855Z,934.35
2018-08-04T06:57:28.714Z,934.39
2018-08-04T06:58:28.729Z,934.34
2018-08-04T06:59:28.729Z,934.37
2018-08-04T07:00:28.750Z,934.35
2018-08-04T07:01:28.928Z,934.31
2018-08-04T07:02:28.774Z,934.35
2018-08-04T07:03:28.797Z,934.32
2018-08-04T07:04:28.799Z,934.31
2018-08-04T07:05:28.811Z,934.31
2018-08-04T07:06:28.976Z,934.33
2018-08-04T07:07:28.840Z,934.30
2018-08-04T07:08:28.851Z,934.25
2018-08-04T07:09:28.850Z,934.22
2018-08-04T07:10:28.876Z,934.20
2018-08-04T07:11:29.034Z,934.23
2018-08-04T07:12:28.877Z,934.20
2018-08-04T07:13:28.910Z,934.21
2018-08-04T07:14:28.916Z,934.19
2018-08-04T07:15:28.934Z,934.14
2018-08-04T07:16:29.102Z,934.16
2018-08-04T07:17:28.939Z,934.14
2018-08-04T07:18:28.965Z,934.13
2018-08-04T07:19:28.983Z,934.10
2018-08-04T07:20:29.007Z,934.09
2018-08-04T07:21:29.162Z,934.08
2018-08-04T07:22:29.018Z,934.08
2018-08-04T07:23:29.035Z,934.09
2018-08-04T07:24:29.045Z,934.12
2018-08-04T07:25:29.052Z,934.15
2018-08-04T07:26:29.061Z,934.15
2018-08-04T07:27:29.226Z,934.18
2018-08-04T07:28:29.088Z,934.22
2018-08-04T07:29:29.097Z,934.21
2018-08-04T07:30:29.113Z,934.23
2018-08-04T07:31:29.128Z,934.21
2018-08-04T07:32:29.139Z,934.17
2018-08-04T07:33:29.402Z,934.23
2018-08-04T07:34:29.166Z,934.23
2018-08-04T07:35:29.174Z,934.22
2018-08-04T07:36:29.182Z,934.23
2018-08-04T07:37:29.197Z,934.20
2018-08-04T07:38:29.360Z,934.20
2018-08-04T07:39:29.219Z,934.15
2018-08-04T07:40:29.340Z,934.14
2018-08-04T07:41:29.248Z,934.14
2018-08-04T07:42:29.258Z,934.09
2018-08-04T07:43:29.403Z,934.14
2018-08-04T07:44:29.279Z,934.14
2018-08-04T07:45:29.281Z,934.14
2018-08-04T07:46:29.308Z,934.18
2018-08-04T07:47:29.338Z,934.23
2018-08-04T07:48:29.460Z,934.19
2018-08-04T07:49:29.343Z,934.27
2018-08-04T07:50:29.335Z,934.25
2018-08-04T07:51:29.352Z,934.27
2018-08-04T07:52:29.370Z,934.29
2018-08-04T07:53:29.543Z,934.27
2018-08-04T07:54:29.383Z,934.32
2018-08-04T07:55:29.424Z,934.32
2018-08-04T07:56:29.413Z,934.31
2018-08-04T07:57:29.428Z,934.29
2018-08-04T07:58:29.605Z,934.26
2018-08-04T07:59:29.487Z,934.19
2018-08-04T08:00:29.480Z,934.19
2018-08-04T08:01:29.495Z,934.17
2018-08-04T08:02:29.506Z,934.17
2018-08-04T08:03:29.661Z,934.12
2018-08-04T08:04:29.528Z,934.11
2018-08-04T08:05:29.542Z,934.13
2018-08-04T08:06:29.555Z,934.07
2018-08-04T08:07:29.566Z,934.08
2018-08-04T08:08:29.711Z,934.08
2018-08-04T08:09:29.589Z,934.09
2018-08-04T08:10:29.639Z,934.08
2018-08-04T08:11:29.615Z,934.10
2018-08-04T08:12:29.627Z,934.10
2018-08-04T08:13:29.766Z,934.15
2018-08-04T08:14:29.648Z,934.15
2018-08-04T08:15:29.665Z,934.23
2018-08-04T08:16:29.673Z,934.24
2018-08-04T08:17:29.688Z,934.25
2018-08-04T08:18:29.832Z,934.28
2018-08-04T08:19:29.773Z,934.30
2018-08-04T08:20:29.723Z,934.37
2018-08-04T08:21:29.744Z,934.38
2018-08-04T08:22:29.758Z,934.42
2018-08-04T08:23:30.017Z,934.42
2018-08-04T08:24:29.768Z,934.43
2018-08-04T08:25:29.785Z,934.44
2018-08-04T08:26:29.780Z,934.41
2018-08-04T08:27:29.805Z,934.43
2018-08-04T08:28:29.975Z,934.40
2018-08-04T08:29:29.833Z,934.44
2018-08-04T08:30:29.843Z,934.44
2018-08-04T08:31:29.914Z,934.43
2018-08-04T08:32:29.875Z,934.49
2018-08-04T08:33:30.037Z,934.48
2018-08-04T08:34:29.901Z,934.49
2018-08-04T08:35:29.903Z,934.49
2018-08-04T08:36:29.925Z,934.48
2018-08-04T08:37:29.933Z,934.46
2018-08-04T08:38:30.125Z,934.50
2018-08-04T08:39:29.952Z,934.51
2018-08-04T08:40:29.981Z,934.48
2018-08-04T08:41:29.993Z,934.55
2018-08-04T08:42:29.998Z,934.49
2018-08-04T08:43:30.136Z,934.52
2018-08-04T08:44:30.005Z,934.50
2018-08-04T08:45:30.036Z,934.54
2018-08-04T08:46:30.050Z,934.55
2018-08-04T08:47:30.052Z,934.58
2018-08-04T08:48:30.046Z,934.61
2018-08-04T08:49:30.233Z,934.66
2018-08-04T08:50:30.095Z,934.70
2018-08-04T08:51:30.106Z,934.70
2018-08-04T08:52:30.102Z,934.76
2018-08-04T08:53:30.323Z,934.78
2018-08-04T08:54:30.297Z,934.76
2018-08-04T08:55:30.150Z,934.78
2018-08-04T08:56:30.170Z,934.74
2018-08-04T08:57:30.173Z,934.75
2018-08-04T08:58:30.186Z,934.76
2018-08-04T08:59:30.354Z,934.76
2018-08-04T09:00:30.196Z,934.77
2018-08-04T09:01:30.385Z,934.79
2018-08-04T09:02:30.237Z,934.79
2018-08-04T09:03:30.261Z,934.82
2018-08-04T09:04:30.414Z,934.78
2018-08-04T09:05:30.281Z,934.78
2018-08-04T09:06:30.297Z,934.72
2018-08-04T09:07:30.300Z,934.63
2018-08-04T09:08:30.323Z,934.60
2018-08-04T09:09:30.469Z,934.56
2018-08-04T09:10:30.335Z,934.50
2018-08-04T09:11:30.345Z,934.47
2018-08-04T09:12:30.352Z,934.43
2018-08-04T09:13:30.369Z,934.47
2018-08-04T09:14:30.384Z,934.49
2018-08-04T09:15:30.389Z,934.51
2018-08-04T09:16:30.405Z,934.54
2018-08-04T09:17:30.416Z,934.57
2018-08-04T09:18:30.426Z,934.58
2018-08-04T09:19:30.667Z,934.56
2018-08-04T09:20:30.448Z,934.57
2018-08-04T09:21:30.463Z,934.59
2018-08-04T09:22:30.481Z,934.58
2018-08-04T09:23:30.489Z,934.61
2018-08-04T09:24:30.646Z,934.62
2018-08-04T09:25:30.516Z,934.64
2018-08-04T09:26:30.505Z,934.61
2018-08-04T09:27:30.539Z,934.54
2018-08-04T09:28:30.548Z,934.58
2018-08-04T09:29:30.708Z,934.59
2018-08-04T09:30:30.566Z,934.59
2018-08-04T09:31:30.591Z,934.60
2018-08-04T09:32:30.593Z,934.61
2018-08-04T09:33:30.604Z,934.60
2018-08-04T09:34:30.767Z,934.62
2018-08-04T09:35:30.631Z,934.65
2018-08-04T09:36:30.638Z,934.67
2018-08-04T09:37:30.649Z,934.63
2018-08-04T09:38:30.669Z,934.70
2018-08-04T09:39:30.926Z,934.72
2018-08-04T09:40:30.689Z,934.77
2018-08-04T09:41:30.701Z,934.78
2018-08-04T09:42:30.699Z,934.82
2018-08-04T09:43:30.729Z,934.85
2018-08-04T09:44:30.871Z,934.88
2018-08-04T09:45:30.727Z,934.96
2018-08-04T09:46:30.755Z,934.96
2018-08-04T09:47:30.765Z,934.99
2018-08-04T09:48:30.763Z,934.99
2018-08-04T09:49:31.044Z,934.98
2018-08-04T09:50:30.804Z,934.96
2018-08-04T09:51:30.812Z,935.00
2018-08-04T09:52:30.853Z,934.94
2018-08-04T09:53:30.847Z,934.95
2018-08-04T09:54:30.987Z,934.97
2018-08-04T09:55:30.862Z,934.96
2018-08-04T09:56:30.874Z,935.00
2018-08-04T09:57:30.925Z,935.05
2018-08-04T09:58:30.897Z,935.06
2018-08-04T09:59:31.121Z,935.10
2018-08-04T10:00:30.942Z,935.16
2018-08-04T10:01:30.941Z,935.09
2018-08-04T10:02:30.946Z,935.05
2018-08-04T10:03:30.960Z,934.99
2018-08-04T10:04:31.122Z,935.01
2018-08-04T10:05:31.006Z,935.04
2018-08-04T10:06:30.990Z,935.07
2018-08-04T10:07:31.005Z,935.06
2018-08-04T10:08:31.015Z,935.07
2018-08-04T10:09:31.027Z,935.06
2018-08-04T10:10:31.197Z,935.04
2018-08-04T10:11:31.053Z,934.96
2018-08-04T10:12:31.059Z,934.91
2018-08-04T10:13:31.082Z,934.87
2018-08-04T10:14:31.084Z,934.90
2018-08-04T10:15:31.100Z,934.93
2018-08-04T10:16:31.263Z,934.98
2018-08-04T10:17:31.124Z,935.07
2018-08-04T10:18:31.135Z,935.14
2018-08-04T10:19:31.130Z,935.11
2018-08-04T10:20:31.141Z,935.08
2018-08-04T10:21:31.320Z,935.11
2018-08-04T10:22:31.180Z,935.07
2018-08-04T10:23:31.197Z,935.04
2018-08-04T10:24:31.205Z,935.00
2018-08-04T10:25:31.220Z,935.03
2018-08-04T10:26:31.466Z,935.05
2018-08-04T10:27:31.227Z,935.10
2018-08-04T10:28:31.250Z,935.12
2018-08-04T10:29:31.263Z,935.19
2018-08-04T10:30:31.282Z,935.17
2018-08-04T10:31:31.441Z,935.20
2018-08-04T10:32:31.314Z,935.17
2018-08-04T10:33:31.317Z,935.11
2018-08-04T10:34:31.328Z,935.08
2018-08-04T10:35:31.339Z,935.03
2018-08-04T10:36:31.613Z,934.95
2018-08-04T10:37:31.372Z,934.88
2018-08-04T10:38:31.384Z,934.90
2018-08-04T10:39:31.379Z,934.92
2018-08-04T10:40:31.397Z,934.89
2018-08-04T10:41:31.567Z,934.86
2018-08-04T10:42:31.425Z,934.90
2018-08-04T10:43:31.443Z,934.87
2018-08-04T10:44:31.456Z,934.84
2018-08-04T10:45:31.464Z,934.75
2018-08-04T10:46:31.628Z,934.73
2018-08-04T10:47:31.494Z,934.68
2018-08-04T10:48:31.505Z,934.64
2018-08-04T10:49:31.530Z,934.63
2018-08-04T10:50:31.535Z,934.69
2018-08-04T10:51:31.695Z,934.72
2018-08-04T10:52:31.552Z,934.76
2018-08-04T10:53:31.569Z,934.78
2018-08-04T10:54:31.580Z,934.83
2018-08-04T10:55:31.595Z,934.95
2018-08-04T10:56:31.854Z,935.01
2018-08-04T10:57:31.619Z,935.03
2018-08-04T10:58:31.631Z,935.05
2018-08-04T10:59:31.643Z,935.00
2018-08-04T11:00:31.647Z,935.04
2018-08-04T11:01:31.929Z,935.07
2018-08-04T11:02:31.690Z,935.10
2018-08-04T11:03:31.707Z,935.11
2018-08-04T11:04:31.721Z,935.14
2018-08-04T11:05:31.733Z,935.22
2018-08-04T11:06:31.897Z,935.27
2018-08-04T11:07:31.738Z,935.26
2018-08-04T11:08:31.772Z,935.28
2018-08-04T11:09:31.786Z,935.28
2018-08-04T11:10:31.798Z,935.28
2018-08-04T11:11:31.958Z,935.22
2018-08-04T11:12:31.840Z,935.21
2018-08-04T11:13:31.843Z,935.14
2018-08-04T11:14:31.855Z,935.14
2018-08-04T11:15:31.868Z,935.13
2018-08-04T11:16:32.128Z,935.12
2018-08-04T11:17:31.897Z,935.09
2018-08-04T11:18:31.932Z,935.08
2018-08-04T11:19:31.926Z,935.03
2018-08-04T11:20:31.919Z,935.00
2018-08-04T11:21:31.950Z,934.98
2018-08-04T11:22:32.216Z,935.04
2018-08-04T11:23:31.980Z,935.05
2018-08-04T11:24:31.996Z,935.03
2018-08-04T11:25:32.007Z,935.04
2018-08-04T11:26:32.022Z,935.01
2018-08-04T11:27:32.042Z,935.04
2018-08-04T11:28:32.184Z,935.01
2018-08-04T11:29:32.069Z,935.03
2018-08-04T11:30:32.069Z,935.05
2018-08-04T11:31:32.104Z,935.09
2018-08-04T11:32:32.111Z,935.06
2018-08-04T11:33:32.280Z,935.06
2018-08-04T11:34:32.144Z,935.08
2018-08-04T11:35:32.161Z,935.02
2018-08-04T11:36:32.242Z,934.99
2018-08-04T11:37:32.187Z,934.97
2018-08-04T11:38:32.457Z,934.95
2018-08-04T11:39:32.221Z,934.92
2018-08-04T11:40:32.241Z,934.95
2018-08-04T11:41:32.258Z,934.90
2018-08-04T11:42:32.247Z,934.94
2018-08-04T11:43:32.433Z,935.01
2018-08-04T11:44:32.300Z,935.00
2018-08-04T11:45:32.329Z,935.00
2018-08-04T11:46:32.318Z,935.08
2018-08-04T11:47:32.349Z,935.10
2018-08-04T11:48:32.624Z,935.02
2018-08-04T11:49:32.363Z,935.07
2018-08-04T11:50:32.401Z,935.03
2018-08-04T11:51:32.419Z,935.00
2018-08-04T11:52:32.430Z,935.00
2018-08-04T11:53:32.700Z,935.04
2018-08-04T11:54:32.461Z,935.09
2018-08-04T11:55:32.477Z,935.15
2018-08-04T11:56:32.493Z,935.15
2018-08-04T11:57:32.510Z,935.18
2018-08-04T11:58:32.632Z,935.19
2018-08-04T11:59:32.523Z,935.22
2018-08-04T12:00:32.543Z,935.15
2018-08-04T12:01:32.579Z,935.19
2018-08-04T12:02:32.593Z,935.21
2018-08-04T12:03:32.756Z,935.12
2018-08-04T12:04:32.629Z,935.11
2018-08-04T12:05:32.751Z,935.12
2018-08-04T12:06:32.658Z,935.10
2018-08-04T12:07:32.689Z,935.10
2018-08-04T12:08:32.850Z,935.10
2018-08-04T12:09:32.697Z,935.22
2018-08-04T12:10:32.715Z,935.27
2018-08-04T12:11:32.744Z,935.25
2018-08-04T12:12:32.765Z,935.26
2018-08-04T12:13:32.934Z,935.21
2018-08-04T12:14:32.811Z,935.17
2018-08-04T12:15:32.824Z,935.12
2018-08-04T12:16:32.844Z,935.01
2018-08-04T12:17:32.833Z,934.98
2018-08-04T12:18:33.028Z,934.96
2018-08-04T12:19:32.890Z,934.94
2018-08-04T12:20:32.907Z,934.97
2018-08-04T12:21:32.923Z,934.90
2018-08-04T12:22:32.948Z,934.92
2018-08-04T12:23:33.093Z,935.00
2018-08-04T12:24:32.963Z,934.98
2018-08-04T12:25:33.056Z,935.02
2018-08-04T12:26:33.017Z,935.06
2018-08-04T12:27:33.036Z,935.07
2018-08-04T12:28:33.052Z,935.10